sensor_id;sensor_type;location;lat;lon;timestamp;P1;durP1;ratioP1;P2;durP2;ratioP2
37609;SDS011;23457;51.966;8.230;2024-02-04T00:00:04;9.07;;;5.20;;
37609;SDS011;23457;51.966;8.230;2024-02-04T00:02:57;12.13;;;5.85;;
37609;SDS011;23457;51.966;8.230;2024-02-04T00:05:23;9.30;;;5.00;;
37609;SDS011;23457;51.966;8.230;2024-02-04T00:07:50;11.88;;;5.30;;
37609;SDS011;23457;51.966;8.230;2024-02-04T00:10:16;9.13;;;5.38;;
37609;SDS011;23457;51.966;8.230;2024-02-04T00:12:44;8.80;;;5.35;;
37609;SDS011;23457;51.966;8.230;2024-02-04T00:15:11;8.80;;;5.20;;
37609;SDS011;23457;51.966;8.230;2024-02-04T00:17:40;8.77;;;4.93;;
37609;SDS011;23457;51.966;8.230;2024-02-04T00:20:10;10.35;;;5.22;;
37609;SDS011;23457;51.966;8.230;2024-02-04T00:22:37;11.23;;;5.50;;
37609;SDS011;23457;51.966;8.230;2024-02-04T00:25:05;8.55;;;5.57;;
37609;SDS011;23457;51.966;8.230;2024-02-04T00:27:32;8.80;;;5.82;;
37609;SDS011;23457;51.966;8.230;2024-02-04T00:33:00;7.20;;;4.78;;
37609;SDS011;23457;51.966;8.230;2024-02-04T00:35:29;8.70;;;5.03;;
37609;SDS011;23457;51.966;8.230;2024-02-04T00:37:56;11.65;;;5.45;;
37609;SDS011;23457;51.966;8.230;2024-02-04T00:40:27;8.98;;;5.70;;
37609;SDS011;23457;51.966;8.230;2024-02-04T00:42:58;10.93;;;6.80;;
37609;SDS011;23457;51.966;8.230;2024-02-04T00:45:26;10.27;;;7.00;;
37609;SDS011;23457;51.966;8.230;2024-02-04T00:47:54;11.30;;;6.18;;
37609;SDS011;23457;51.966;8.230;2024-02-04T00:50:20;15.73;;;6.85;;
37609;SDS011;23457;51.966;8.230;2024-02-04T00:52:47;9.68;;;6.97;;
37609;SDS011;23457;51.966;8.230;2024-02-04T00:55:14;11.32;;;7.00;;
37609;SDS011;23457;51.966;8.230;2024-02-04T00:57:41;16.20;;;7.88;;
37609;SDS011;23457;51.966;8.230;2024-02-04T01:03:31;16.20;;;9.55;;
37609;SDS011;23457;51.966;8.230;2024-02-04T01:05:59;22.00;;;10.70;;
37609;SDS011;23457;51.966;8.230;2024-02-04T01:08:26;21.15;;;11.60;;
37609;SDS011;23457;51.966;8.230;2024-02-04T01:10:53;24.38;;;13.25;;
37609;SDS011;23457;51.966;8.230;2024-02-04T01:13:20;31.98;;;17.17;;
37609;SDS011;23457;51.966;8.230;2024-02-04T01:15:46;33.88;;;19.20;;
37609;SDS011;23457;51.966;8.230;2024-02-04T01:18:13;36.42;;;20.45;;
37609;SDS011;23457;51.966;8.230;2024-02-04T01:20:40;49.45;;;24.23;;
37609;SDS011;23457;51.966;8.230;2024-02-04T01:23:06;49.75;;;26.73;;
37609;SDS011;23457;51.966;8.230;2024-02-04T01:25:33;59.00;;;30.10;;
37609;SDS011;23457;51.966;8.230;2024-02-04T01:28:00;54.38;;;30.05;;
37609;SDS011;23457;51.966;8.230;2024-02-04T01:30:27;57.05;;;31.98;;
37609;SDS011;23457;51.966;8.230;2024-02-04T01:32:56;58.80;;;31.55;;
37609;SDS011;23457;51.966;8.230;2024-02-04T01:35:23;64.93;;;32.35;;
37609;SDS011;23457;51.966;8.230;2024-02-04T01:37:50;57.45;;;31.80;;
37609;SDS011;23457;51.966;8.230;2024-02-04T01:40:18;55.90;;;31.40;;
37609;SDS011;23457;51.966;8.230;2024-02-04T01:42:45;61.05;;;32.85;;
37609;SDS011;23457;51.966;8.230;2024-02-04T01:45:14;61.03;;;33.35;;
37609;SDS011;23457;51.966;8.230;2024-02-04T01:47:41;55.53;;;29.98;;
37609;SDS011;23457;51.966;8.230;2024-02-04T01:50:11;50.88;;;29.15;;
37609;SDS011;23457;51.966;8.230;2024-02-04T01:52:38;55.70;;;29.20;;
37609;SDS011;23457;51.966;8.230;2024-02-04T01:55:06;52.58;;;29.75;;
37609;SDS011;23457;51.966;8.230;2024-02-04T01:57:36;47.17;;;27.10;;
37609;SDS011;23457;51.966;8.230;2024-02-04T02:00:03;49.75;;;27.73;;
37609;SDS011;23457;51.966;8.230;2024-02-04T02:02:31;47.78;;;27.17;;
37609;SDS011;23457;51.966;8.230;2024-02-04T02:05:00;45.08;;;26.30;;
37609;SDS011;23457;51.966;8.230;2024-02-04T02:07:27;45.30;;;25.88;;
37609;SDS011;23457;51.966;8.230;2024-02-04T02:09:54;45.30;;;25.63;;
37609;SDS011;23457;51.966;8.230;2024-02-04T02:12:25;41.90;;;24.13;;
37609;SDS011;23457;51.966;8.230;2024-02-04T02:15:08;42.05;;;23.83;;
37609;SDS011;23457;51.966;8.230;2024-02-04T02:18:00;35.80;;;21.83;;
37609;SDS011;23457;51.966;8.230;2024-02-04T02:23:48;34.13;;;20.42;;
37609;SDS011;23457;51.966;8.230;2024-02-04T02:26:43;36.70;;;20.55;;
37609;SDS011;23457;51.966;8.230;2024-02-04T02:29:10;30.30;;;18.80;;
37609;SDS011;23457;51.966;8.230;2024-02-04T02:31:37;30.70;;;18.92;;
37609;SDS011;23457;51.966;8.230;2024-02-04T02:34:14;31.27;;;18.58;;
37609;SDS011;23457;51.966;8.230;2024-02-04T02:36:45;26.88;;;17.50;;
37609;SDS011;23457;51.966;8.230;2024-02-04T02:39:20;27.15;;;16.17;;
37609;SDS011;23457;51.966;8.230;2024-02-04T02:41:50;26.80;;;16.23;;
37609;SDS011;23457;51.966;8.230;2024-02-04T02:44:25;24.98;;;15.02;;
37609;SDS011;23457;51.966;8.230;2024-02-04T02:46:54;25.27;;;14.82;;
37609;SDS011;23457;51.966;8.230;2024-02-04T02:49:23;23.77;;;13.00;;
37609;SDS011;23457;51.966;8.230;2024-02-04T02:51:50;21.58;;;13.35;;
37609;SDS011;23457;51.966;8.230;2024-02-04T02:54:17;21.77;;;13.40;;
37609;SDS011;23457;51.966;8.230;2024-02-04T02:56:43;20.02;;;12.00;;
37609;SDS011;23457;51.966;8.230;2024-02-04T02:59:10;21.15;;;12.43;;
37609;SDS011;23457;51.966;8.230;2024-02-04T03:01:40;17.55;;;11.15;;
37609;SDS011;23457;51.966;8.230;2024-02-04T03:04:07;16.75;;;10.90;;
37609;SDS011;23457;51.966;8.230;2024-02-04T03:06:34;18.77;;;11.63;;
37609;SDS011;23457;51.966;8.230;2024-02-04T03:09:00;15.63;;;10.35;;
37609;SDS011;23457;51.966;8.230;2024-02-04T03:11:27;18.58;;;11.15;;
37609;SDS011;23457;51.966;8.230;2024-02-04T03:13:54;19.13;;;12.18;;
37609;SDS011;23457;51.966;8.230;2024-02-04T03:16:21;18.42;;;11.98;;
37609;SDS011;23457;51.966;8.230;2024-02-04T03:18:48;15.27;;;10.48;;
37609;SDS011;23457;51.966;8.230;2024-02-04T03:21:15;19.73;;;11.80;;
37609;SDS011;23457;51.966;8.230;2024-02-04T03:23:43;19.50;;;11.90;;
37609;SDS011;23457;51.966;8.230;2024-02-04T03:26:11;17.67;;;11.32;;
37609;SDS011;23457;51.966;8.230;2024-02-04T03:28:38;15.95;;;11.90;;
37609;SDS011;23457;51.966;8.230;2024-02-04T03:31:04;20.95;;;12.30;;
37609;SDS011;23457;51.966;8.230;2024-02-04T03:33:31;21.17;;;11.73;;
37609;SDS011;23457;51.966;8.230;2024-02-04T03:35:58;16.30;;;10.85;;
37609;SDS011;23457;51.966;8.230;2024-02-04T03:38:25;16.40;;;11.43;;
37609;SDS011;23457;51.966;8.230;2024-02-04T03:40:52;16.65;;;11.52;;
37609;SDS011;23457;51.966;8.230;2024-02-04T03:43:19;18.08;;;10.55;;
37609;SDS011;23457;51.966;8.230;2024-02-04T03:45:46;13.57;;;10.18;;
37609;SDS011;23457;51.966;8.230;2024-02-04T03:48:12;14.25;;;10.27;;
37609;SDS011;23457;51.966;8.230;2024-02-04T03:50:39;13.40;;;9.63;;
37609;SDS011;23457;51.966;8.230;2024-02-04T03:53:06;12.25;;;7.80;;
37609;SDS011;23457;51.966;8.230;2024-02-04T03:55:33;9.65;;;6.85;;
37609;SDS011;23457;51.966;8.230;2024-02-04T03:57:59;10.65;;;6.65;;
37609;SDS011;23457;51.966;8.230;2024-02-04T04:00:26;8.73;;;6.35;;
37609;SDS011;23457;51.966;8.230;2024-02-04T04:02:53;13.55;;;6.68;;
37609;SDS011;23457;51.966;8.230;2024-02-04T04:05:20;10.88;;;6.43;;
37609;SDS011;23457;51.966;8.230;2024-02-04T04:07:47;8.27;;;5.85;;
37609;SDS011;23457;51.966;8.230;2024-02-04T04:10:13;7.53;;;5.85;;
37609;SDS011;23457;51.966;8.230;2024-02-04T04:12:40;8.65;;;5.72;;
37609;SDS011;23457;51.966;8.230;2024-02-04T04:15:07;12.10;;;6.50;;
37609;SDS011;23457;51.966;8.230;2024-02-04T04:17:34;11.25;;;5.85;;
37609;SDS011;23457;51.966;8.230;2024-02-04T04:20:00;6.75;;;5.65;;
37609;SDS011;23457;51.966;8.230;2024-02-04T04:22:27;10.55;;;6.07;;
37609;SDS011;23457;51.966;8.230;2024-02-04T04:24:54;6.78;;;5.90;;
37609;SDS011;23457;51.966;8.230;2024-02-04T04:27:21;10.73;;;5.85;;
37609;SDS011;23457;51.966;8.230;2024-02-04T04:29:47;6.80;;;5.07;;
37609;SDS011;23457;51.966;8.230;2024-02-04T04:32:14;7.05;;;5.45;;
37609;SDS011;23457;51.966;8.230;2024-02-04T04:34:41;8.50;;;4.95;;
37609;SDS011;23457;51.966;8.230;2024-02-04T04:37:07;7.63;;;5.07;;
37609;SDS011;23457;51.966;8.230;2024-02-04T04:39:35;6.05;;;4.70;;
37609;SDS011;23457;51.966;8.230;2024-02-04T04:42:02;5.95;;;4.50;;
37609;SDS011;23457;51.966;8.230;2024-02-04T04:44:29;6.95;;;4.60;;
37609;SDS011;23457;51.966;8.230;2024-02-04T04:46:56;8.05;;;4.55;;
37609;SDS011;23457;51.966;8.230;2024-02-04T04:49:22;7.15;;;4.55;;
37609;SDS011;23457;51.966;8.230;2024-02-04T04:51:49;6.28;;;4.65;;
37609;SDS011;23457;51.966;8.230;2024-02-04T04:54:16;7.07;;;5.03;;
37609;SDS011;23457;51.966;8.230;2024-02-04T04:56:42;8.02;;;5.20;;
37609;SDS011;23457;51.966;8.230;2024-02-04T04:59:09;9.43;;;5.63;;
37609;SDS011;23457;51.966;8.230;2024-02-04T05:01:36;10.32;;;5.18;;
37609;SDS011;23457;51.966;8.230;2024-02-04T05:04:03;8.50;;;6.18;;
37609;SDS011;23457;51.966;8.230;2024-02-04T05:06:30;9.20;;;6.07;;
37609;SDS011;23457;51.966;8.230;2024-02-04T05:08:57;7.15;;;5.60;;
37609;SDS011;23457;51.966;8.230;2024-02-04T05:11:24;8.27;;;5.70;;
37609;SDS011;23457;51.966;8.230;2024-02-04T05:13:51;9.32;;;6.15;;
37609;SDS011;23457;51.966;8.230;2024-02-04T05:16:17;9.40;;;5.70;;
37609;SDS011;23457;51.966;8.230;2024-02-04T05:18:44;9.73;;;6.10;;
37609;SDS011;23457;51.966;8.230;2024-02-04T05:21:11;12.85;;;6.35;;
37609;SDS011;23457;51.966;8.230;2024-02-04T05:23:37;8.55;;;6.20;;
37609;SDS011;23457;51.966;8.230;2024-02-04T05:26:04;12.85;;;7.20;;
37609;SDS011;23457;51.966;8.230;2024-02-04T05:28:31;12.18;;;7.10;;
37609;SDS011;23457;51.966;8.230;2024-02-04T05:30:58;11.40;;;7.18;;
37609;SDS011;23457;51.966;8.230;2024-02-04T05:33:27;11.32;;;7.25;;
37609;SDS011;23457;51.966;8.230;2024-02-04T05:35:54;11.88;;;8.05;;
37609;SDS011;23457;51.966;8.230;2024-02-04T05:38:21;16.83;;;8.25;;
37609;SDS011;23457;51.966;8.230;2024-02-04T05:40:48;14.82;;;8.82;;
37609;SDS011;23457;51.966;8.230;2024-02-04T05:43:15;14.65;;;9.30;;
37609;SDS011;23457;51.966;8.230;2024-02-04T05:45:42;13.65;;;8.55;;
37609;SDS011;23457;51.966;8.230;2024-02-04T05:48:09;14.30;;;8.07;;
37609;SDS011;23457;51.966;8.230;2024-02-04T05:50:37;13.45;;;8.10;;
37609;SDS011;23457;51.966;8.230;2024-02-04T05:53:03;13.73;;;7.68;;
37609;SDS011;23457;51.966;8.230;2024-02-04T05:55:30;16.10;;;7.55;;
37609;SDS011;23457;51.966;8.230;2024-02-04T05:57:57;16.58;;;7.75;;
37609;SDS011;23457;51.966;8.230;2024-02-04T06:00:24;15.27;;;7.20;;
37609;SDS011;23457;51.966;8.230;2024-02-04T06:02:50;15.38;;;7.32;;
37609;SDS011;23457;51.966;8.230;2024-02-04T06:05:17;12.70;;;6.68;;
37609;SDS011;23457;51.966;8.230;2024-02-04T06:07:44;13.98;;;7.22;;
37609;SDS011;23457;51.966;8.230;2024-02-04T06:10:11;11.18;;;6.50;;
37609;SDS011;23457;51.966;8.230;2024-02-04T06:12:38;12.88;;;6.60;;
37609;SDS011;23457;51.966;8.230;2024-02-04T06:15:14;11.15;;;6.80;;
37609;SDS011;23457;51.966;8.230;2024-02-04T06:17:41;13.60;;;6.35;;
37609;SDS011;23457;51.966;8.230;2024-02-04T06:20:12;12.13;;;6.13;;
37609;SDS011;23457;51.966;8.230;2024-02-04T06:22:38;11.30;;;6.32;;
37609;SDS011;23457;51.966;8.230;2024-02-04T06:25:05;14.48;;;6.35;;
37609;SDS011;23457;51.966;8.230;2024-02-04T06:27:33;17.30;;;7.43;;
37609;SDS011;23457;51.966;8.230;2024-02-04T06:29:59;13.57;;;6.45;;
37609;SDS011;23457;51.966;8.230;2024-02-04T06:32:26;10.88;;;6.03;;
37609;SDS011;23457;51.966;8.230;2024-02-04T06:34:53;11.05;;;6.03;;
37609;SDS011;23457;51.966;8.230;2024-02-04T06:37:22;14.02;;;6.15;;
37609;SDS011;23457;51.966;8.230;2024-02-04T06:39:48;14.05;;;7.35;;
37609;SDS011;23457;51.966;8.230;2024-02-04T06:42:15;12.10;;;6.45;;
37609;SDS011;23457;51.966;8.230;2024-02-04T06:44:43;11.90;;;6.68;;
37609;SDS011;23457;51.966;8.230;2024-02-04T06:47:11;11.93;;;7.35;;
37609;SDS011;23457;51.966;8.230;2024-02-04T06:49:44;14.10;;;7.80;;
37609;SDS011;23457;51.966;8.230;2024-02-04T06:52:12;14.07;;;8.40;;
37609;SDS011;23457;51.966;8.230;2024-02-04T06:54:38;14.93;;;9.00;;
37609;SDS011;23457;51.966;8.230;2024-02-04T06:57:05;18.92;;;10.32;;
37609;SDS011;23457;51.966;8.230;2024-02-04T06:59:32;18.67;;;12.10;;
37609;SDS011;23457;51.966;8.230;2024-02-04T07:01:58;24.85;;;13.60;;
37609;SDS011;23457;51.966;8.230;2024-02-04T07:04:25;24.75;;;13.43;;
37609;SDS011;23457;51.966;8.230;2024-02-04T07:06:52;22.85;;;14.52;;
37609;SDS011;23457;51.966;8.230;2024-02-04T07:09:19;26.80;;;14.90;;
37609;SDS011;23457;51.966;8.230;2024-02-04T07:11:45;28.85;;;16.05;;
37609;SDS011;23457;51.966;8.230;2024-02-04T07:14:12;26.25;;;16.45;;
37609;SDS011;23457;51.966;8.230;2024-02-04T07:16:39;26.77;;;16.90;;
37609;SDS011;23457;51.966;8.230;2024-02-04T07:19:06;30.50;;;17.15;;
37609;SDS011;23457;51.966;8.230;2024-02-04T07:21:33;29.75;;;16.33;;
37609;SDS011;23457;51.966;8.230;2024-02-04T07:24:00;22.88;;;14.70;;
37609;SDS011;23457;51.966;8.230;2024-02-04T07:26:27;24.45;;;12.73;;
37609;SDS011;23457;51.966;8.230;2024-02-04T07:28:53;19.52;;;12.25;;
37609;SDS011;23457;51.966;8.230;2024-02-04T07:31:20;19.17;;;10.98;;
37609;SDS011;23457;51.966;8.230;2024-02-04T07:33:48;21.45;;;10.18;;
37609;SDS011;23457;51.966;8.230;2024-02-04T07:36:14;15.98;;;9.23;;
37609;SDS011;23457;51.966;8.230;2024-02-04T07:38:41;21.30;;;9.43;;
37609;SDS011;23457;51.966;8.230;2024-02-04T07:41:08;16.73;;;7.75;;
37609;SDS011;23457;51.966;8.230;2024-02-04T07:43:34;22.45;;;7.90;;
37609;SDS011;23457;51.966;8.230;2024-02-04T07:46:02;23.05;;;7.65;;
37609;SDS011;23457;51.966;8.230;2024-02-04T07:50:57;10.93;;;6.57;;
37609;SDS011;23457;51.966;8.230;2024-02-04T07:53:24;16.30;;;6.82;;
37609;SDS011;23457;51.966;8.230;2024-02-04T07:55:51;15.80;;;7.28;;
37609;SDS011;23457;51.966;8.230;2024-02-04T07:58:18;14.90;;;6.55;;
37609;SDS011;23457;51.966;8.230;2024-02-04T08:00:44;19.08;;;7.45;;
37609;SDS011;23457;51.966;8.230;2024-02-04T08:03:11;14.65;;;5.97;;
37609;SDS011;23457;51.966;8.230;2024-02-04T08:05:39;17.20;;;5.85;;
37609;SDS011;23457;51.966;8.230;2024-02-04T08:08:06;14.80;;;4.85;;
37609;SDS011;23457;51.966;8.230;2024-02-04T08:10:32;10.95;;;4.75;;
37609;SDS011;23457;51.966;8.230;2024-02-04T08:12:59;12.18;;;3.83;;
37609;SDS011;23457;51.966;8.230;2024-02-04T08:15:26;14.45;;;4.78;;
37609;SDS011;23457;51.966;8.230;2024-02-04T08:17:52;12.18;;;3.70;;
37609;SDS011;23457;51.966;8.230;2024-02-04T08:20:19;11.38;;;4.20;;
37609;SDS011;23457;51.966;8.230;2024-02-04T08:22:47;11.52;;;3.80;;
37609;SDS011;23457;51.966;8.230;2024-02-04T08:25:14;8.18;;;3.42;;
37609;SDS011;23457;51.966;8.230;2024-02-04T08:27:41;13.60;;;3.50;;
37609;SDS011;23457;51.966;8.230;2024-02-04T08:30:08;7.97;;;3.28;;
37609;SDS011;23457;51.966;8.230;2024-02-04T08:32:36;7.18;;;2.67;;
37609;SDS011;23457;51.966;8.230;2024-02-04T08:35:03;6.40;;;2.30;;
37609;SDS011;23457;51.966;8.230;2024-02-04T08:37:32;8.95;;;2.25;;
37609;SDS011;23457;51.966;8.230;2024-02-04T08:39:59;11.05;;;2.65;;
37609;SDS011;23457;51.966;8.230;2024-02-04T08:42:25;9.75;;;2.40;;
37609;SDS011;23457;51.966;8.230;2024-02-04T08:44:52;9.43;;;2.40;;
37609;SDS011;23457;51.966;8.230;2024-02-04T08:47:19;13.00;;;2.40;;
37609;SDS011;23457;51.966;8.230;2024-02-04T08:49:45;8.40;;;1.98;;
37609;SDS011;23457;51.966;8.230;2024-02-04T08:52:12;8.18;;;2.00;;
37609;SDS011;23457;51.966;8.230;2024-02-04T08:54:39;8.98;;;2.53;;
37609;SDS011;23457;51.966;8.230;2024-02-04T08:57:06;13.60;;;2.92;;
37609;SDS011;23457;51.966;8.230;2024-02-04T08:59:33;11.45;;;2.42;;
37609;SDS011;23457;51.966;8.230;2024-02-04T09:02:00;9.43;;;1.65;;
37609;SDS011;23457;51.966;8.230;2024-02-04T09:04:27;9.52;;;2.20;;
37609;SDS011;23457;51.966;8.230;2024-02-04T09:06:59;15.93;;;3.03;;
37609;SDS011;23457;51.966;8.230;2024-02-04T09:09:33;12.40;;;2.75;;
37609;SDS011;23457;51.966;8.230;2024-02-04T09:12:07;9.32;;;2.28;;
37609;SDS011;23457;51.966;8.230;2024-02-04T09:14:38;11.38;;;2.72;;
37609;SDS011;23457;51.966;8.230;2024-02-04T09:17:05;14.73;;;2.92;;
37609;SDS011;23457;51.966;8.230;2024-02-04T09:19:32;8.70;;;2.53;;
37609;SDS011;23457;51.966;8.230;2024-02-04T09:22:00;10.13;;;2.88;;
37609;SDS011;23457;51.966;8.230;2024-02-04T09:24:30;12.65;;;3.30;;
37609;SDS011;23457;51.966;8.230;2024-02-04T09:26:57;14.13;;;3.85;;
37609;SDS011;23457;51.966;8.230;2024-02-04T09:29:24;11.43;;;3.45;;
37609;SDS011;23457;51.966;8.230;2024-02-04T09:31:51;12.98;;;4.07;;
37609;SDS011;23457;51.966;8.230;2024-02-04T09:34:18;10.68;;;4.38;;
37609;SDS011;23457;51.966;8.230;2024-02-04T09:36:47;8.75;;;4.10;;
37609;SDS011;23457;51.966;8.230;2024-02-04T09:39:14;14.18;;;4.50;;
37609;SDS011;23457;51.966;8.230;2024-02-04T09:41:43;8.80;;;4.18;;
37609;SDS011;23457;51.966;8.230;2024-02-04T09:44:09;12.32;;;4.60;;
37609;SDS011;23457;51.966;8.230;2024-02-04T09:49:06;9.60;;;3.70;;
37609;SDS011;23457;51.966;8.230;2024-02-04T09:51:35;10.52;;;4.15;;
37609;SDS011;23457;51.966;8.230;2024-02-04T09:54:05;11.25;;;4.35;;
37609;SDS011;23457;51.966;8.230;2024-02-04T09:56:35;11.73;;;4.10;;
37609;SDS011;23457;51.966;8.230;2024-02-04T09:59:04;12.23;;;3.88;;
37609;SDS011;23457;51.966;8.230;2024-02-04T10:01:31;8.85;;;3.53;;
37609;SDS011;23457;51.966;8.230;2024-02-04T10:03:58;13.40;;;3.55;;
37609;SDS011;23457;51.966;8.230;2024-02-04T10:06:26;10.40;;;3.72;;
37609;SDS011;23457;51.966;8.230;2024-02-04T10:08:53;9.90;;;3.70;;
37609;SDS011;23457;51.966;8.230;2024-02-04T10:11:20;8.43;;;3.65;;
37609;SDS011;23457;51.966;8.230;2024-02-04T10:13:47;8.65;;;3.40;;
37609;SDS011;23457;51.966;8.230;2024-02-04T10:16:15;7.18;;;4.03;;
37609;SDS011;23457;51.966;8.230;2024-02-04T10:18:46;9.98;;;3.72;;
37609;SDS011;23457;51.966;8.230;2024-02-04T10:21:19;8.50;;;3.55;;
37609;SDS011;23457;51.966;8.230;2024-02-04T10:23:50;7.63;;;3.40;;
37609;SDS011;23457;51.966;8.230;2024-02-04T10:26:17;8.65;;;3.45;;
37609;SDS011;23457;51.966;8.230;2024-02-04T10:31:14;7.80;;;4.03;;
37609;SDS011;23457;51.966;8.230;2024-02-04T10:33:41;9.52;;;4.43;;
37609;SDS011;23457;51.966;8.230;2024-02-04T10:36:08;8.80;;;4.60;;
37609;SDS011;23457;51.966;8.230;2024-02-04T10:38:35;7.57;;;3.95;;
37609;SDS011;23457;51.966;8.230;2024-02-04T10:41:01;10.70;;;3.78;;
37609;SDS011;23457;51.966;8.230;2024-02-04T10:43:32;10.48;;;4.55;;
37609;SDS011;23457;51.966;8.230;2024-02-04T10:46:12;10.45;;;4.10;;
37609;SDS011;23457;51.966;8.230;2024-02-04T10:48:41;9.73;;;4.70;;
37609;SDS011;23457;51.966;8.230;2024-02-04T10:51:15;8.13;;;5.00;;
37609;SDS011;23457;51.966;8.230;2024-02-04T10:53:44;11.52;;;5.85;;
37609;SDS011;23457;51.966;8.230;2024-02-04T10:56:32;12.02;;;5.43;;
37609;SDS011;23457;51.966;8.230;2024-02-04T10:59:04;10.55;;;5.05;;
37609;SDS011;23457;51.966;8.230;2024-02-04T11:01:33;12.35;;;5.47;;
37609;SDS011;23457;51.966;8.230;2024-02-04T11:04:00;8.38;;;4.57;;
37609;SDS011;23457;51.966;8.230;2024-02-04T11:06:29;8.23;;;5.07;;
37609;SDS011;23457;51.966;8.230;2024-02-04T11:08:57;14.05;;;5.55;;
37609;SDS011;23457;51.966;8.230;2024-02-04T11:11:52;9.68;;;4.75;;
37609;SDS011;23457;51.966;8.230;2024-02-04T11:14:22;12.40;;;5.30;;
37609;SDS011;23457;51.966;8.230;2024-02-04T11:17:00;12.00;;;5.22;;
37609;SDS011;23457;51.966;8.230;2024-02-04T11:28:13;9.18;;;4.30;;
37609;SDS011;23457;51.966;8.230;2024-02-04T11:30:42;8.38;;;4.93;;
37609;SDS011;23457;51.966;8.230;2024-02-04T11:33:11;9.07;;;5.47;;
37609;SDS011;23457;51.966;8.230;2024-02-04T11:35:38;11.18;;;5.25;;
37609;SDS011;23457;51.966;8.230;2024-02-04T11:38:05;10.57;;;5.40;;
37609;SDS011;23457;51.966;8.230;2024-02-04T11:40:36;11.30;;;6.10;;
37609;SDS011;23457;51.966;8.230;2024-02-04T11:45:41;10.63;;;6.65;;
37609;SDS011;23457;51.966;8.230;2024-02-04T11:48:12;12.02;;;6.50;;
37609;SDS011;23457;51.966;8.230;2024-02-04T11:50:39;10.80;;;6.72;;
37609;SDS011;23457;51.966;8.230;2024-02-04T11:53:11;12.43;;;7.00;;
37609;SDS011;23457;51.966;8.230;2024-02-04T11:55:40;15.75;;;7.40;;
37609;SDS011;23457;51.966;8.230;2024-02-04T11:58:11;9.75;;;6.78;;
37609;SDS011;23457;51.966;8.230;2024-02-04T12:00:42;15.53;;;7.27;;
37609;SDS011;23457;51.966;8.230;2024-02-04T12:03:11;13.18;;;6.90;;
37609;SDS011;23457;51.966;8.230;2024-02-04T12:05:38;14.52;;;7.30;;
37609;SDS011;23457;51.966;8.230;2024-02-04T12:08:08;11.65;;;7.28;;
37609;SDS011;23457;51.966;8.230;2024-02-04T12:10:36;12.02;;;7.18;;
37609;SDS011;23457;51.966;8.230;2024-02-04T12:13:05;16.75;;;8.77;;
37609;SDS011;23457;51.966;8.230;2024-02-04T12:15:36;12.02;;;7.63;;
37609;SDS011;23457;51.966;8.230;2024-02-04T12:18:09;12.85;;;6.97;;
37609;SDS011;23457;51.966;8.230;2024-02-04T12:20:38;13.05;;;7.60;;
37609;SDS011;23457;51.966;8.230;2024-02-04T12:23:05;14.77;;;7.50;;
37609;SDS011;23457;51.966;8.230;2024-02-04T12:25:34;13.18;;;7.18;;
37609;SDS011;23457;51.966;8.230;2024-02-04T12:28:02;13.95;;;6.95;;
37609;SDS011;23457;51.966;8.230;2024-02-04T12:30:32;12.23;;;7.00;;
37609;SDS011;23457;51.966;8.230;2024-02-04T12:35:28;7.70;;;6.10;;
37609;SDS011;23457;51.966;8.230;2024-02-04T12:37:56;11.48;;;5.93;;
37609;SDS011;23457;51.966;8.230;2024-02-04T12:40:24;10.60;;;6.72;;
37609;SDS011;23457;51.966;8.230;2024-02-04T12:45:24;11.32;;;6.70;;
37609;SDS011;23457;51.966;8.230;2024-02-04T12:47:52;12.00;;;6.63;;
37609;SDS011;23457;51.966;8.230;2024-02-04T12:50:20;15.20;;;6.60;;
37609;SDS011;23457;51.966;8.230;2024-02-04T12:52:48;10.68;;;6.03;;
37609;SDS011;23457;51.966;8.230;2024-02-04T12:55:23;9.18;;;5.63;;
37609;SDS011;23457;51.966;8.230;2024-02-04T12:58:05;8.80;;;5.65;;
37609;SDS011;23457;51.966;8.230;2024-02-04T13:00:33;9.48;;;5.53;;
37609;SDS011;23457;51.966;8.230;2024-02-04T13:03:02;8.13;;;5.38;;
37609;SDS011;23457;51.966;8.230;2024-02-04T13:05:39;10.32;;;6.20;;
37609;SDS011;23457;51.966;8.230;2024-02-04T13:08:05;9.10;;;5.20;;
37609;SDS011;23457;51.966;8.230;2024-02-04T13:10:34;9.52;;;5.50;;
37609;SDS011;23457;51.966;8.230;2024-02-04T13:15:30;10.35;;;6.07;;
37609;SDS011;23457;51.966;8.230;2024-02-04T13:17:59;12.52;;;6.25;;
37609;SDS011;23457;51.966;8.230;2024-02-04T13:20:26;12.68;;;6.28;;
37609;SDS011;23457;51.966;8.230;2024-02-04T13:22:57;6.95;;;6.15;;
37609;SDS011;23457;51.966;8.230;2024-02-04T13:25:25;11.73;;;6.05;;
37609;SDS011;23457;51.966;8.230;2024-02-04T13:27:52;9.02;;;6.18;;
37609;SDS011;23457;51.966;8.230;2024-02-04T13:30:19;8.63;;;6.80;;
37609;SDS011;23457;51.966;8.230;2024-02-04T13:32:46;11.57;;;7.03;;
37609;SDS011;23457;51.966;8.230;2024-02-04T13:35:13;12.13;;;6.85;;
37609;SDS011;23457;51.966;8.230;2024-02-04T13:37:47;10.60;;;6.90;;
37609;SDS011;23457;51.966;8.230;2024-02-04T13:40:17;9.52;;;7.22;;
37609;SDS011;23457;51.966;8.230;2024-02-04T13:43:17;11.40;;;6.97;;
37609;SDS011;23457;51.966;8.230;2024-02-04T13:45:44;11.10;;;6.63;;
37609;SDS011;23457;51.966;8.230;2024-02-04T13:48:11;9.25;;;6.40;;
37609;SDS011;23457;51.966;8.230;2024-02-04T13:50:38;7.35;;;5.90;;
37609;SDS011;23457;51.966;8.230;2024-02-04T13:53:05;7.97;;;7.18;;
37609;SDS011;23457;51.966;8.230;2024-02-04T13:55:32;11.05;;;5.60;;
37609;SDS011;23457;51.966;8.230;2024-02-04T13:57:59;9.25;;;5.38;;
37609;SDS011;23457;51.966;8.230;2024-02-04T14:00:27;10.15;;;6.35;;
37609;SDS011;23457;51.966;8.230;2024-02-04T14:02:54;7.68;;;5.10;;
37609;SDS011;23457;51.966;8.230;2024-02-04T14:05:21;7.38;;;5.10;;
37609;SDS011;23457;51.966;8.230;2024-02-04T14:07:47;6.72;;;5.70;;
37609;SDS011;23457;51.966;8.230;2024-02-04T14:10:15;11.23;;;6.68;;
37609;SDS011;23457;51.966;8.230;2024-02-04T14:12:42;6.28;;;5.18;;
37609;SDS011;23457;51.966;8.230;2024-02-04T14:15:12;7.78;;;5.45;;
37609;SDS011;23457;51.966;8.230;2024-02-04T14:17:43;7.18;;;5.03;;
37609;SDS011;23457;51.966;8.230;2024-02-04T14:20:10;6.82;;;4.95;;
37609;SDS011;23457;51.966;8.230;2024-02-04T14:22:38;9.82;;;5.32;;
37609;SDS011;23457;51.966;8.230;2024-02-04T14:25:05;7.75;;;5.20;;
37609;SDS011;23457;51.966;8.230;2024-02-04T14:27:33;7.57;;;5.18;;
37609;SDS011;23457;51.966;8.230;2024-02-04T14:30:02;5.57;;;5.07;;
37609;SDS011;23457;51.966;8.230;2024-02-04T14:32:34;9.90;;;5.28;;
37609;SDS011;23457;51.966;8.230;2024-02-04T14:35:02;5.68;;;5.05;;
37609;SDS011;23457;51.966;8.230;2024-02-04T14:37:32;7.55;;;5.47;;
37609;SDS011;23457;51.966;8.230;2024-02-04T14:39:59;7.22;;;4.68;;
37609;SDS011;23457;51.966;8.230;2024-02-04T14:42:31;8.77;;;5.15;;
37609;SDS011;23457;51.966;8.230;2024-02-04T14:44:58;9.95;;;5.25;;
37609;SDS011;23457;51.966;8.230;2024-02-04T14:47:29;6.25;;;4.00;;
37609;SDS011;23457;51.966;8.230;2024-02-04T14:49:56;5.50;;;4.07;;
37609;SDS011;23457;51.966;8.230;2024-02-04T14:52:23;5.90;;;3.45;;
37609;SDS011;23457;51.966;8.230;2024-02-04T14:54:50;7.72;;;5.05;;
37609;SDS011;23457;51.966;8.230;2024-02-04T14:57:16;7.70;;;4.85;;
37609;SDS011;23457;51.966;8.230;2024-02-04T14:59:43;7.50;;;5.00;;
37609;SDS011;23457;51.966;8.230;2024-02-04T15:02:10;9.15;;;5.30;;
37609;SDS011;23457;51.966;8.230;2024-02-04T15:04:38;5.75;;;4.80;;
37609;SDS011;23457;51.966;8.230;2024-02-04T15:07:05;6.00;;;4.30;;
37609;SDS011;23457;51.966;8.230;2024-02-04T15:09:33;6.65;;;4.75;;
37609;SDS011;23457;51.966;8.230;2024-02-04T15:12:01;6.03;;;4.40;;
37609;SDS011;23457;51.966;8.230;2024-02-04T15:14:28;4.93;;;3.90;;
37609;SDS011;23457;51.966;8.230;2024-02-04T15:16:55;5.68;;;3.97;;